EKSP/SKS METAR and TAF weather

Enter ICAO airport designator
Station Type Date Time Source
EKSP METAR 2021/03/04 21:20 UTC NOAA

EKSP 042120Z 35003KT CAVOK M02/M06 Q1023


Station Type Date Time Source
EKSP Decoded METAR 2021/03/04 21:20 UTC NOAA

Skrydstrup, Denmark (EKSP) 55-14N 009-16E 47M
Mar 04, 2021 - 04:20 PM EST / 2021.03.04 2120 UTC
Wind: from the N (350 degrees) at 3 MPH (3 KT):0
Visibility: greater than 7 mile(s):0
Temperature: 28 F (-2 C)
Dew Point: 21 F (-6 C)
Relative Humidity: 74%
Pressure (altimeter): 30.21 in. Hg (1023 hPa)
ob: EKSP 042120Z 35003KT CAVOK M02/M06 Q1023
cycle: 21

Station Type Date Time Source
EKSP TAF 2021/03/04 21:31 UTC NOAA

TAF EKSP 042020Z 0421/0521 36005KT 9999 FEW200

Example: see airport list